sensor_id;sensor_type;location;lat;lon;timestamp;pressure;altitude;pressure_sealevel;temperature;humidity
63691;BME280;49837;57.280;27.070;2023-03-14T00:00:46;97784.23;;;1.71;100.0
63691;BME280;49837;57.280;27.070;2023-03-14T00:01:49;97780.08;;;1.68;100.0
63691;BME280;49837;57.280;27.070;2023-03-14T00:02:51;97773.88;;;1.66;100.0
63691;BME280;49837;57.280;27.070;2023-03-14T00:03:50;97786.59;;;1.65;100.0
63691;BME280;49837;57.280;27.070;2023-03-14T00:04:49;97778.56;;;1.64;100.0
63691;BME280;49837;57.280;27.070;2023-03-14T00:05:50;97781.0;;;1.62;100.0
63691;BME280;49837;57.280;27.070;2023-03-14T00:06:50;97784.67;;;1.58;100.0
63691;BME280;49837;57.280;27.070;2023-03-14T00:07:50;97774.66;;;1.65;100.0
63691;BME280;49837;57.280;27.070;2023-03-14T00:08:51;97775.28;;;1.69;100.0
63691;BME280;49837;57.280;27.070;2023-03-14T00:09:51;97768.88;;;1.72;100.0
63691;BME280;49837;57.280;27.070;2023-03-14T00:10:51;97766.21;;;1.68;100.0
63691;BME280;49837;57.280;27.070;2023-03-14T00:11:53;97759.77;;;1.7;100.0
63691;BME280;49837;57.280;27.070;2023-03-14T00:12:52;97755.7;;;1.69;100.0
63691;BME280;49837;57.280;27.070;2023-03-14T00:13:52;97753.79;;;1.7;100.0
63691;BME280;49837;57.280;27.070;2023-03-14T00:14:53;97757.93;;;1.77;100.0
63691;BME280;49837;57.280;27.070;2023-03-14T00:15:53;97762.44;;;1.77;100.0
63691;BME280;49837;57.280;27.070;2023-03-14T00:16:53;97758.09;;;1.77;100.0
63691;BME280;49837;57.280;27.070;2023-03-14T00:17:54;97757.67;;;1.69;100.0
63691;BME280;49837;57.280;27.070;2023-03-14T00:18:54;97758.88;;;1.6;100.0
63691;BME280;49837;57.280;27.070;2023-03-14T00:19:54;97761.09;;;1.69;100.0
63691;BME280;49837;57.280;27.070;2023-03-14T00:20:58;97755.86;;;1.69;100.0
63691;BME280;49837;57.280;27.070;2023-03-14T00:21:55;97762.69;;;1.62;100.0
63691;BME280;49837;57.280;27.070;2023-03-14T00:22:55;97756.88;;;1.72;100.0
63691;BME280;49837;57.280;27.070;2023-03-14T00:23:56;97747.88;;;1.73;100.0
63691;BME280;49837;57.280;27.070;2023-03-14T00:24:56;97756.91;;;1.71;100.0
63691;BME280;49837;57.280;27.070;2023-03-14T00:26:03;97753.03;;;1.7;100.0
63691;BME280;49837;57.280;27.070;2023-03-14T00:27:00;97750.83;;;1.73;100.0
63691;BME280;49837;57.280;27.070;2023-03-14T00:28:01;97754.28;;;1.68;100.0
63691;BME280;49837;57.280;27.070;2023-03-14T00:29:01;97738.44;;;1.65;100.0
63691;BME280;49837;57.280;27.070;2023-03-14T00:30:02;97752.44;;;1.59;100.0
63691;BME280;49837;57.280;27.070;2023-03-14T00:31:03;97753.72;;;1.68;100.0
63691;BME280;49837;57.280;27.070;2023-03-14T00:32:02;97743.59;;;1.7;100.0
63691;BME280;49837;57.280;27.070;2023-03-14T00:33:03;97755.83;;;1.71;100.0
63691;BME280;49837;57.280;27.070;2023-03-14T00:34:03;97742.64;;;1.69;100.0
63691;BME280;49837;57.280;27.070;2023-03-14T00:35:04;97733.11;;;1.65;100.0
63691;BME280;49837;57.280;27.070;2023-03-14T00:36:07;97730.88;;;1.65;100.0
63691;BME280;49837;57.280;27.070;2023-03-14T00:37:04;97730.72;;;1.7;100.0
63691;BME280;49837;57.280;27.070;2023-03-14T00:38:05;97729.86;;;1.76;100.0
63691;BME280;49837;57.280;27.070;2023-03-14T00:39:05;97736.06;;;1.79;100.0
63691;BME280;49837;57.280;27.070;2023-03-14T00:40:07;97733.57;;;1.81;100.0
63691;BME280;49837;57.280;27.070;2023-03-14T00:41:11;97733.05;;;1.79;100.0
63691;BME280;49837;57.280;27.070;2023-03-14T00:42:09;97718.55;;;1.75;100.0
63691;BME280;49837;57.280;27.070;2023-03-14T00:43:09;97713.29;;;1.73;100.0
63691;BME280;49837;57.280;27.070;2023-03-14T00:44:10;97711.91;;;1.7;100.0
63691;BME280;49837;57.280;27.070;2023-03-14T00:45:10;97723.02;;;1.74;100.0
63691;BME280;49837;57.280;27.070;2023-03-14T00:46:11;97717.2;;;1.76;100.0
63691;BME280;49837;57.280;27.070;2023-03-14T00:47:11;97720.58;;;1.81;100.0
63691;BME280;49837;57.280;27.070;2023-03-14T00:48:11;97723.22;;;1.81;100.0
63691;BME280;49837;57.280;27.070;2023-03-14T00:49:11;97736.36;;;1.9;100.0
63691;BME280;49837;57.280;27.070;2023-03-14T00:50:12;97736.75;;;1.91;100.0
63691;BME280;49837;57.280;27.070;2023-03-14T00:51:12;97734.29;;;1.84;100.0
63691;BME280;49837;57.280;27.070;2023-03-14T00:52:12;97725.35;;;1.78;100.0
63691;BME280;49837;57.280;27.070;2023-03-14T00:53:13;97721.86;;;1.82;100.0
63691;BME280;49837;57.280;27.070;2023-03-14T00:54:13;97719.63;;;1.8;100.0
63691;BME280;49837;57.280;27.070;2023-03-14T00:55:13;97715.33;;;1.81;100.0
63691;BME280;49837;57.280;27.070;2023-03-14T00:56:14;97710.02;;;1.87;100.0
63691;BME280;49837;57.280;27.070;2023-03-14T00:57:14;97711.08;;;1.84;100.0
63691;BME280;49837;57.280;27.070;2023-03-14T00:58:17;97717.22;;;1.85;100.0
63691;BME280;49837;57.280;27.070;2023-03-14T00:59:16;97713.5;;;1.93;100.0
63691;BME280;49837;57.280;27.070;2023-03-14T01:00:15;97713.12;;;1.85;100.0
63691;BME280;49837;57.280;27.070;2023-03-14T01:01:17;97715.44;;;1.91;100.0
63691;BME280;49837;57.280;27.070;2023-03-14T01:02:16;97711.52;;;1.96;100.0
63691;BME280;49837;57.280;27.070;2023-03-14T01:03:16;97734.67;;;1.94;100.0
63691;BME280;49837;57.280;27.070;2023-03-14T01:04:16;97744.4;;;2.04;100.0
63691;BME280;49837;57.280;27.070;2023-03-14T01:05:17;97732.38;;;1.94;100.0
63691;BME280;49837;57.280;27.070;2023-03-14T01:06:19;97723.39;;;1.97;100.0
63691;BME280;49837;57.280;27.070;2023-03-14T01:07:17;97715.31;;;1.88;100.0
63691;BME280;49837;57.280;27.070;2023-03-14T01:08:18;97714.75;;;1.9;100.0
63691;BME280;49837;57.280;27.070;2023-03-14T01:09:18;97701.31;;;1.89;100.0
63691;BME280;49837;57.280;27.070;2023-03-14T01:10:19;97691.83;;;1.97;100.0
63691;BME280;49837;57.280;27.070;2023-03-14T01:11:24;97693.78;;;2.04;100.0
63691;BME280;49837;57.280;27.070;2023-03-14T01:12:21;97703.12;;;2.04;100.0
63691;BME280;49837;57.280;27.070;2023-03-14T01:13:23;97711.03;;;2.1;100.0
63691;BME280;49837;57.280;27.070;2023-03-14T01:14:22;97706.92;;;2.12;100.0
63691;BME280;49837;57.280;27.070;2023-03-14T01:15:23;97711.87;;;2.07;100.0
63691;BME280;49837;57.280;27.070;2023-03-14T01:16:25;97726.11;;;2.06;100.0
63691;BME280;49837;57.280;27.070;2023-03-14T01:17:23;97742.75;;;2.04;100.0
63691;BME280;49837;57.280;27.070;2023-03-14T01:18:24;97771.45;;;2.15;100.0
63691;BME280;49837;57.280;27.070;2023-03-14T01:19:24;97800.8;;;2.09;100.0
63691;BME280;49837;57.280;27.070;2023-03-14T01:20:25;97817.07;;;2.19;100.0
63691;BME280;49837;57.280;27.070;2023-03-14T01:21:30;97817.25;;;2.35;100.0
63691;BME280;49837;57.280;27.070;2023-03-14T01:22:28;97816.38;;;2.32;100.0
63691;BME280;49837;57.280;27.070;2023-03-14T01:23:28;97816.88;;;2.41;100.0
63691;BME280;49837;57.280;27.070;2023-03-14T01:24:28;97807.83;;;2.46;100.0
63691;BME280;49837;57.280;27.070;2023-03-14T01:25:29;97799.59;;;2.46;100.0
63691;BME280;49837;57.280;27.070;2023-03-14T01:26:31;97798.29;;;2.41;100.0
63691;BME280;49837;57.280;27.070;2023-03-14T01:27:29;97791.52;;;2.35;100.0
63691;BME280;49837;57.280;27.070;2023-03-14T01:28:30;97805.38;;;2.31;100.0
63691;BME280;49837;57.280;27.070;2023-03-14T01:29:30;97812.01;;;2.15;100.0
63691;BME280;49837;57.280;27.070;2023-03-14T01:30:30;97811.72;;;2.14;100.0
63691;BME280;49837;57.280;27.070;2023-03-14T01:31:31;97819.41;;;2.22;100.0
63691;BME280;49837;57.280;27.070;2023-03-14T01:32:31;97825.3;;;2.19;100.0
63691;BME280;49837;57.280;27.070;2023-03-14T01:33:31;97829.02;;;2.15;100.0
63691;BME280;49837;57.280;27.070;2023-03-14T01:34:35;97822.63;;;2.17;100.0
63691;BME280;49837;57.280;27.070;2023-03-14T01:35:32;97823.84;;;2.27;100.0
63691;BME280;49837;57.280;27.070;2023-03-14T01:36:33;97811.91;;;2.18;100.0
63691;BME280;49837;57.280;27.070;2023-03-14T01:37:33;97804.88;;;2.06;100.0
63691;BME280;49837;57.280;27.070;2023-03-14T01:38:35;97799.45;;;1.94;100.0
63691;BME280;49837;57.280;27.070;2023-03-14T01:39:34;97799.88;;;1.91;100.0
63691;BME280;49837;57.280;27.070;2023-03-14T01:40:42;97798.89;;;1.93;100.0
63691;BME280;49837;57.280;27.070;2023-03-14T01:41:40;97795.28;;;1.94;100.0
63691;BME280;49837;57.280;27.070;2023-03-14T01:42:45;97785.88;;;1.95;100.0
63691;BME280;49837;57.280;27.070;2023-03-14T01:43:42;97778.23;;;2.07;100.0
63691;BME280;49837;57.280;27.070;2023-03-14T01:44:53;97773.93;;;2.04;100.0
63691;BME280;49837;57.280;27.070;2023-03-14T01:46:52;97768.73;;;2.03;100.0
63691;BME280;49837;57.280;27.070;2023-03-14T01:47:52;97768.47;;;2.02;100.0
63691;BME280;49837;57.280;27.070;2023-03-14T01:50:55;97756.86;;;2.04;100.0
63691;BME280;49837;57.280;27.070;2023-03-14T01:52:56;97756.91;;;2.12;100.0
63691;BME280;49837;57.280;27.070;2023-03-14T01:55:05;97754.91;;;2.13;100.0
63691;BME280;49837;57.280;27.070;2023-03-14T01:56:05;97755.85;;;2.2;100.0
63691;BME280;49837;57.280;27.070;2023-03-14T01:58:05;97751.41;;;2.25;100.0
63691;BME280;49837;57.280;27.070;2023-03-14T01:59:08;97751.27;;;2.26;100.0
63691;BME280;49837;57.280;27.070;2023-03-14T02:00:14;97749.94;;;2.14;100.0
63691;BME280;49837;57.280;27.070;2023-03-14T02:01:08;97746.05;;;2.22;100.0
63691;BME280;49837;57.280;27.070;2023-03-14T02:02:09;97745.41;;;2.26;100.0
63691;BME280;49837;57.280;27.070;2023-03-14T02:03:15;97746.47;;;2.24;100.0
63691;BME280;49837;57.280;27.070;2023-03-14T02:04:14;97741.23;;;2.28;100.0
63691;BME280;49837;57.280;27.070;2023-03-14T02:05:19;97737.44;;;2.31;100.0
63691;BME280;49837;57.280;27.070;2023-03-14T02:06:23;97731.09;;;2.29;100.0
63691;BME280;49837;57.280;27.070;2023-03-14T02:07:33;97728.48;;;2.33;100.0
63691;BME280;49837;57.280;27.070;2023-03-14T02:08:23;97725.63;;;2.4;100.0
63691;BME280;49837;57.280;27.070;2023-03-14T02:09:23;97717.48;;;2.35;100.0
63691;BME280;49837;57.280;27.070;2023-03-14T02:10:25;97717.66;;;2.22;100.0
63691;BME280;49837;57.280;27.070;2023-03-14T02:11:28;97715.41;;;2.35;100.0
63691;BME280;49837;57.280;27.070;2023-03-14T02:12:26;97708.84;;;2.41;100.0
63691;BME280;49837;57.280;27.070;2023-03-14T02:13:26;97710.83;;;2.39;100.0
63691;BME280;49837;57.280;27.070;2023-03-14T02:14:34;97711.06;;;2.37;100.0
63691;BME280;49837;57.280;27.070;2023-03-14T02:15:27;97720.19;;;2.33;100.0
63691;BME280;49837;57.280;27.070;2023-03-14T02:16:28;97719.56;;;2.36;100.0
63691;BME280;49837;57.280;27.070;2023-03-14T02:17:28;97720.94;;;2.37;100.0
63691;BME280;49837;57.280;27.070;2023-03-14T02:18:29;97709.14;;;2.43;100.0
63691;BME280;49837;57.280;27.070;2023-03-14T02:22:40;97706.84;;;2.41;100.0
63691;BME280;49837;57.280;27.070;2023-03-14T02:25:51;97720.92;;;2.51;100.0
63691;BME280;49837;57.280;27.070;2023-03-14T02:27:50;97717.91;;;2.4;100.0
63691;BME280;49837;57.280;27.070;2023-03-14T02:28:51;97726.78;;;2.42;100.0
63691;BME280;49837;57.280;27.070;2023-03-14T02:29:59;97715.4;;;2.41;100.0
63691;BME280;49837;57.280;27.070;2023-03-14T02:30:52;97726.16;;;2.43;100.0
63691;BME280;49837;57.280;27.070;2023-03-14T02:31:52;97732.42;;;2.47;100.0
63691;BME280;49837;57.280;27.070;2023-03-14T02:32:57;97735.59;;;2.46;100.0
63691;BME280;49837;57.280;27.070;2023-03-14T02:33:56;97749.16;;;2.44;100.0
63691;BME280;49837;57.280;27.070;2023-03-14T02:34:58;97743.05;;;2.47;100.0
63691;BME280;49837;57.280;27.070;2023-03-14T02:35:59;97745.62;;;2.46;100.0
63691;BME280;49837;57.280;27.070;2023-03-14T02:36:59;97745.41;;;2.38;100.0
63691;BME280;49837;57.280;27.070;2023-03-14T02:39:20;97741.73;;;2.4;100.0
63691;BME280;49837;57.280;27.070;2023-03-14T02:40:05;97750.48;;;2.37;100.0
63691;BME280;49837;57.280;27.070;2023-03-14T02:41:05;97750.69;;;2.36;100.0
63691;BME280;49837;57.280;27.070;2023-03-14T02:42:05;97753.86;;;2.41;100.0
63691;BME280;49837;57.280;27.070;2023-03-14T02:43:06;97744.97;;;2.44;100.0
63691;BME280;49837;57.280;27.070;2023-03-14T02:44:06;97742.89;;;2.47;100.0
63691;BME280;49837;57.280;27.070;2023-03-14T02:46:11;97749.02;;;2.55;100.0
63691;BME280;49837;57.280;27.070;2023-03-14T02:47:10;97750.48;;;2.48;100.0
63691;BME280;49837;57.280;27.070;2023-03-14T02:49:13;97750.83;;;2.45;100.0
63691;BME280;49837;57.280;27.070;2023-03-14T02:50:16;97751.13;;;2.41;100.0
63691;BME280;49837;57.280;27.070;2023-03-14T02:51:15;97749.24;;;2.46;100.0
63691;BME280;49837;57.280;27.070;2023-03-14T02:52:15;97747.2;;;2.46;100.0
63691;BME280;49837;57.280;27.070;2023-03-14T02:53:18;97745.2;;;2.44;100.0
63691;BME280;49837;57.280;27.070;2023-03-14T02:54:16;97743.69;;;2.45;100.0
63691;BME280;49837;57.280;27.070;2023-03-14T02:55:24;97744.84;;;2.41;100.0
63691;BME280;49837;57.280;27.070;2023-03-14T02:56:21;97742.53;;;2.48;100.0
63691;BME280;49837;57.280;27.070;2023-03-14T02:57:21;97729.95;;;2.5;100.0
63691;BME280;49837;57.280;27.070;2023-03-14T02:58:24;97742.1;;;2.46;100.0
63691;BME280;49837;57.280;27.070;2023-03-14T02:59:22;97744.99;;;2.48;100.0
63691;BME280;49837;57.280;27.070;2023-03-14T03:00:23;97747.42;;;2.51;100.0
63691;BME280;49837;57.280;27.070;2023-03-14T03:01:23;97744.16;;;2.5;100.0
63691;BME280;49837;57.280;27.070;2023-03-14T03:02:23;97743.05;;;2.47;100.0
63691;BME280;49837;57.280;27.070;2023-03-14T03:03:24;97741.08;;;2.47;100.0
63691;BME280;49837;57.280;27.070;2023-03-14T03:04:24;97740.56;;;2.45;100.0
63691;BME280;49837;57.280;27.070;2023-03-14T03:05:24;97742.84;;;2.5;100.0
63691;BME280;49837;57.280;27.070;2023-03-14T03:06:25;97749.12;;;2.52;100.0
63691;BME280;49837;57.280;27.070;2023-03-14T03:07:25;97752.44;;;2.47;100.0
63691;BME280;49837;57.280;27.070;2023-03-14T03:08:26;97750.38;;;2.42;100.0
63691;BME280;49837;57.280;27.070;2023-03-14T03:09:26;97745.73;;;2.43;100.0
63691;BME280;49837;57.280;27.070;2023-03-14T03:10:27;97742.27;;;2.48;100.0
63691;BME280;49837;57.280;27.070;2023-03-14T03:11:26;97747.98;;;2.49;100.0
63691;BME280;49837;57.280;27.070;2023-03-14T03:12:27;97740.97;;;2.5;100.0
63691;BME280;49837;57.280;27.070;2023-03-14T03:13:27;97746.84;;;2.47;100.0
63691;BME280;49837;57.280;27.070;2023-03-14T03:14:27;97741.05;;;2.48;100.0
63691;BME280;49837;57.280;27.070;2023-03-14T03:15:28;97744.39;;;2.51;100.0
63691;BME280;49837;57.280;27.070;2023-03-14T03:16:28;97749.28;;;2.54;100.0
63691;BME280;49837;57.280;27.070;2023-03-14T03:17:28;97741.2;;;2.48;100.0
63691;BME280;49837;57.280;27.070;2023-03-14T03:18:29;97736.25;;;2.56;100.0
63691;BME280;49837;57.280;27.070;2023-03-14T03:19:30;97730.6;;;2.5;100.0
63691;BME280;49837;57.280;27.070;2023-03-14T03:20:30;97746.3;;;2.53;100.0
63691;BME280;49837;57.280;27.070;2023-03-14T03:21:30;97739.56;;;2.56;100.0
63691;BME280;49837;57.280;27.070;2023-03-14T03:22:30;97738.14;;;2.6;100.0
63691;BME280;49837;57.280;27.070;2023-03-14T03:23:31;97737.8;;;2.62;100.0
63691;BME280;49837;57.280;27.070;2023-03-14T03:24:31;97736.67;;;2.64;100.0
63691;BME280;49837;57.280;27.070;2023-03-14T03:25:31;97732.95;;;2.49;100.0
63691;BME280;49837;57.280;27.070;2023-03-14T03:26:36;97733.39;;;2.52;100.0
63691;BME280;49837;57.280;27.070;2023-03-14T03:27:35;97727.02;;;2.51;100.0
63691;BME280;49837;57.280;27.070;2023-03-14T03:28:33;97732.66;;;2.56;100.0
63691;BME280;49837;57.280;27.070;2023-03-14T03:29:34;97725.22;;;2.65;100.0
63691;BME280;49837;57.280;27.070;2023-03-14T03:30:38;97723.48;;;2.69;100.0
63691;BME280;49837;57.280;27.070;2023-03-14T03:31:37;97715.16;;;2.67;100.0
63691;BME280;49837;57.280;27.070;2023-03-14T03:32:36;97715.84;;;2.62;100.0
63691;BME280;49837;57.280;27.070;2023-03-14T03:33:37;97713.77;;;2.56;100.0
63691;BME280;49837;57.280;27.070;2023-03-14T03:34:37;97722.23;;;2.63;100.0
63691;BME280;49837;57.280;27.070;2023-03-14T03:36:41;97729.3;;;2.63;100.0
63691;BME280;49837;57.280;27.070;2023-03-14T03:37:42;97721.7;;;2.64;100.0
63691;BME280;49837;57.280;27.070;2023-03-14T03:38:44;97729.95;;;2.72;100.0
63691;BME280;49837;57.280;27.070;2023-03-14T03:39:43;97735.97;;;2.77;100.0
63691;BME280;49837;57.280;27.070;2023-03-14T03:40:45;97736.12;;;2.86;100.0
63691;BME280;49837;57.280;27.070;2023-03-14T03:41:43;97740.83;;;2.79;100.0
63691;BME280;49837;57.280;27.070;2023-03-14T03:42:44;97749.19;;;2.89;100.0
63691;BME280;49837;57.280;27.070;2023-03-14T03:43:44;97749.22;;;2.87;100.0
63691;BME280;49837;57.280;27.070;2023-03-14T03:44:44;97749.22;;;2.72;100.0
63691;BME280;49837;57.280;27.070;2023-03-14T03:45:45;97749.06;;;2.79;100.0
63691;BME280;49837;57.280;27.070;2023-03-14T03:46:45;97743.97;;;2.85;100.0
63691;BME280;49837;57.280;27.070;2023-03-14T03:47:45;97743.13;;;2.87;100.0
63691;BME280;49837;57.280;27.070;2023-03-14T03:48:46;97746.51;;;2.67;100.0
63691;BME280;49837;57.280;27.070;2023-03-14T03:49:46;97750.91;;;2.77;100.0
63691;BME280;49837;57.280;27.070;2023-03-14T03:50:47;97746.64;;;2.9;100.0
63691;BME280;49837;57.280;27.070;2023-03-14T03:51:50;97752.47;;;2.98;100.0
63691;BME280;49837;57.280;27.070;2023-03-14T03:52:48;97746.01;;;3.05;100.0
63691;BME280;49837;57.280;27.070;2023-03-14T03:53:48;97750.58;;;3.0;100.0
63691;BME280;49837;57.280;27.070;2023-03-14T03:54:48;97746.76;;;3.07;100.0
63691;BME280;49837;57.280;27.070;2023-03-14T03:55:48;97747.67;;;3.14;100.0
63691;BME280;49837;57.280;27.070;2023-03-14T03:56:49;97737.07;;;3.0;100.0
63691;BME280;49837;57.280;27.070;2023-03-14T03:57:49;97726.14;;;2.99;100.0
63691;BME280;49837;57.280;27.070;2023-03-14T03:58:49;97725.43;;;3.03;100.0
63691;BME280;49837;57.280;27.070;2023-03-14T03:59:50;97728.88;;;3.1;100.0
63691;BME280;49837;57.280;27.070;2023-03-14T04:00:50;97730.53;;;3.1;100.0
63691;BME280;49837;57.280;27.070;2023-03-14T04:01:50;97728.91;;;3.32;100.0
63691;BME280;49837;57.280;27.070;2023-03-14T04:02:51;97730.78;;;3.29;100.0
63691;BME280;49837;57.280;27.070;2023-03-14T04:03:51;97736.03;;;3.27;100.0
63691;BME280;49837;57.280;27.070;2023-03-14T04:04:52;97732.7;;;3.28;100.0
63691;BME280;49837;57.280;27.070;2023-03-14T04:06:54;97744.06;;;3.18;100.0
63691;BME280;49837;57.280;27.070;2023-03-14T04:07:55;97742.7;;;3.12;100.0
63691;BME280;49837;57.280;27.070;2023-03-14T04:08:55;97750.2;;;3.03;100.0
63691;BME280;49837;57.280;27.070;2023-03-14T04:09:56;97743.17;;;3.17;100.0
63691;BME280;49837;57.280;27.070;2023-03-14T04:10:59;97743.58;;;3.32;100.0
63691;BME280;49837;57.280;27.070;2023-03-14T04:11:57;97747.56;;;3.38;100.0
63691;BME280;49837;57.280;27.070;2023-03-14T04:12:57;97751.88;;;3.47;100.0
63691;BME280;49837;57.280;27.070;2023-03-14T04:13:57;97747.31;;;3.4;100.0
63691;BME280;49837;57.280;27.070;2023-03-14T04:14:58;97747.55;;;3.4;100.0
63691;BME280;49837;57.280;27.070;2023-03-14T04:15:58;97752.81;;;3.42;100.0
63691;BME280;49837;57.280;27.070;2023-03-14T04:16:58;97749.0;;;3.39;100.0
63691;BME280;49837;57.280;27.070;2023-03-14T04:17:59;97753.77;;;3.35;100.0
63691;BME280;49837;57.280;27.070;2023-03-14T04:19:00;97751.83;;;3.5;100.0
63691;BME280;49837;57.280;27.070;2023-03-14T04:20:00;97752.03;;;3.54;100.0
63691;BME280;49837;57.280;27.070;2023-03-14T04:21:00;97750.37;;;3.42;100.0
63691;BME280;49837;57.280;27.070;2023-03-14T04:22:00;97746.35;;;3.41;100.0
63691;BME280;49837;57.280;27.070;2023-03-14T04:23:01;97755.84;;;3.51;100.0
63691;BME280;49837;57.280;27.070;2023-03-14T04:24:01;97740.67;;;3.48;100.0
63691;BME280;49837;57.280;27.070;2023-03-14T04:25:01;97739.34;;;3.45;100.0
63691;BME280;49837;57.280;27.070;2023-03-14T04:26:02;97743.18;;;3.57;100.0
63691;BME280;49837;57.280;27.070;2023-03-14T04:27:02;97747.42;;;3.54;100.0
63691;BME280;49837;57.280;27.070;2023-03-14T04:28:06;97730.58;;;3.44;100.0
63691;BME280;49837;57.280;27.070;2023-03-14T04:29:03;97736.99;;;3.55;100.0
63691;BME280;49837;57.280;27.070;2023-03-14T04:30:04;97727.11;;;3.63;100.0
63691;BME280;49837;57.280;27.070;2023-03-14T04:31:17;97718.76;;;3.68;100.0
63691;BME280;49837;57.280;27.070;2023-03-14T04:32:05;97717.66;;;3.84;100.0
63691;BME280;49837;57.280;27.070;2023-03-14T04:33:06;97722.91;;;3.77;100.0
63691;BME280;49837;57.280;27.070;2023-03-14T04:34:06;97719.89;;;3.78;100.0
63691;BME280;49837;57.280;27.070;2023-03-14T04:35:07;97709.31;;;3.89;100.0
63691;BME280;49837;57.280;27.070;2023-03-14T04:36:08;97714.64;;;3.71;100.0
63691;BME280;49837;57.280;27.070;2023-03-14T04:37:07;97711.81;;;3.78;100.0
63691;BME280;49837;57.280;27.070;2023-03-14T04:38:07;97707.59;;;3.83;100.0
63691;BME280;49837;57.280;27.070;2023-03-14T04:39:08;97699.32;;;3.77;100.0
63691;BME280;49837;57.280;27.070;2023-03-14T04:40:09;97699.98;;;3.85;100.0
63691;BME280;49837;57.280;27.070;2023-03-14T04:41:08;97703.86;;;3.93;100.0
63691;BME280;49837;57.280;27.070;2023-03-14T04:42:09;97701.06;;;3.93;100.0
63691;BME280;49837;57.280;27.070;2023-03-14T04:43:10;97703.71;;;3.99;100.0
63691;BME280;49837;57.280;27.070;2023-03-14T04:44:09;97709.1;;;3.94;100.0
63691;BME280;49837;57.280;27.070;2023-03-14T04:45:10;97710.2;;;3.89;100.0
63691;BME280;49837;57.280;27.070;2023-03-14T04:46:10;97710.62;;;3.79;100.0
63691;BME280;49837;57.280;27.070;2023-03-14T04:47:11;97707.8;;;3.74;100.0
63691;BME280;49837;57.280;27.070;2023-03-14T04:48:11;97700.84;;;3.8;100.0
63691;BME280;49837;57.280;27.070;2023-03-14T04:49:11;97704.0;;;3.82;100.0
63691;BME280;49837;57.280;27.070;2023-03-14T04:50:12;97707.77;;;3.88;100.0
63691;BME280;49837;57.280;27.070;2023-03-14T04:51:12;97704.98;;;3.85;100.0
63691;BME280;49837;57.280;27.070;2023-03-14T04:52:12;97704.9;;;3.92;100.0
63691;BME280;49837;57.280;27.070;2023-03-14T04:53:14;97718.28;;;3.86;100.0
63691;BME280;49837;57.280;27.070;2023-03-14T04:54:13;97719.64;;;3.88;100.0
63691;BME280;49837;57.280;27.070;2023-03-14T04:55:14;97719.24;;;3.92;100.0
63691;BME280;49837;57.280;27.070;2023-03-14T04:56:14;97718.56;;;3.83;100.0
63691;BME280;49837;57.280;27.070;2023-03-14T04:57:14;97716.05;;;3.91;100.0
63691;BME280;49837;57.280;27.070;2023-03-14T04:58:15;97720.23;;;3.92;100.0
63691;BME280;49837;57.280;27.070;2023-03-14T04:59:15;97728.73;;;3.9;100.0
63691;BME280;49837;57.280;27.070;2023-03-14T05:00:16;97721.73;;;4.02;100.0
63691;BME280;49837;57.280;27.070;2023-03-14T05:01:16;97717.46;;;3.89;100.0
63691;BME280;49837;57.280;27.070;2023-03-14T05:02:19;97717.57;;;3.98;100.0
63691;BME280;49837;57.280;27.070;2023-03-14T05:03:17;97726.66;;;4.04;100.0
63691;BME280;49837;57.280;27.070;2023-03-14T05:04:17;97729.06;;;4.04;100.0
63691;BME280;49837;57.280;27.070;2023-03-14T05:05:17;97723.27;;;3.78;100.0
63691;BME280;49837;57.280;27.070;2023-03-14T05:06:18;97729.34;;;3.87;100.0
63691;BME280;49837;57.280;27.070;2023-03-14T05:07:18;97729.36;;;3.82;100.0
63691;BME280;49837;57.280;27.070;2023-03-14T05:08:18;97735.36;;;3.97;100.0
63691;BME280;49837;57.280;27.070;2023-03-14T05:09:19;97725.22;;;4.13;100.0
63691;BME280;49837;57.280;27.070;2023-03-14T05:10:19;97727.88;;;4.14;100.0
63691;BME280;49837;57.280;27.070;2023-03-14T05:11:19;97726.76;;;4.0;100.0
63691;BME280;49837;57.280;27.070;2023-03-14T05:12:20;97728.54;;;4.0;100.0
63691;BME280;49837;57.280;27.070;2023-03-14T05:13:20;97722.24;;;4.07;100.0
63691;BME280;49837;57.280;27.070;2023-03-14T05:14:21;97718.16;;;4.09;100.0
63691;BME280;49837;57.280;27.070;2023-03-14T05:15:21;97721.49;;;3.95;100.0
63691;BME280;49837;57.280;27.070;2023-03-14T05:16:21;97722.22;;;3.83;100.0
63691;BME280;49837;57.280;27.070;2023-03-14T05:17:22;97722.0;;;3.93;100.0
63691;BME280;49837;57.280;27.070;2023-03-14T05:18:22;97720.64;;;3.76;100.0
63691;BME280;49837;57.280;27.070;2023-03-14T05:19:22;97721.95;;;3.8;100.0
63691;BME280;49837;57.280;27.070;2023-03-14T05:20:23;97716.16;;;3.83;100.0
63691;BME280;49837;57.280;27.070;2023-03-14T05:21:23;97716.66;;;3.79;100.0
63691;BME280;49837;57.280;27.070;2023-03-14T05:22:23;97708.75;;;3.85;100.0
63691;BME280;49837;57.280;27.070;2023-03-14T05:23:24;97707.55;;;3.97;100.0
63691;BME280;49837;57.280;27.070;2023-03-14T05:24:24;97714.91;;;3.97;100.0
63691;BME280;49837;57.280;27.070;2023-03-14T05:25:25;97707.56;;;3.89;100.0
63691;BME280;49837;57.280;27.070;2023-03-14T05:26:25;97714.73;;;3.96;100.0
63691;BME280;49837;57.280;27.070;2023-03-14T05:27:25;97718.41;;;4.04;100.0
63691;BME280;49837;57.280;27.070;2023-03-14T05:28:26;97727.98;;;4.04;100.0
63691;BME280;49837;57.280;27.070;2023-03-14T05:29:26;97725.88;;;4.13;100.0
63691;BME280;49837;57.280;27.070;2023-03-14T05:30:26;97735.39;;;4.08;100.0
63691;BME280;49837;57.280;27.070;2023-03-14T05:31:27;97728.23;;;4.04;100.0
63691;BME280;49837;57.280;27.070;2023-03-14T05:32:27;97740.11;;;3.98;100.0
63691;BME280;49837;57.280;27.070;2023-03-14T05:33:28;97747.75;;;4.03;100.0
63691;BME280;49837;57.280;27.070;2023-03-14T05:34:28;97752.28;;;4.01;100.0
63691;BME280;49837;57.280;27.070;2023-03-14T05:35:28;97751.34;;;4.03;100.0
63691;BME280;49837;57.280;27.070;2023-03-14T05:36:29;97755.95;;;4.08;100.0
63691;BME280;49837;57.280;27.070;2023-03-14T05:37:29;97756.12;;;3.99;100.0
63691;BME280;49837;57.280;27.070;2023-03-14T05:38:29;97755.13;;;4.03;100.0
63691;BME280;49837;57.280;27.070;2023-03-14T05:39:30;97758.38;;;4.05;100.0